createdAt,value
2019-05-21T00:00:45.597Z,86.91
2019-05-21T00:01:45.686Z,86.91
2019-05-21T00:02:45.608Z,87.32
2019-05-21T00:03:45.563Z,86.51
2019-05-21T00:04:45.548Z,86.91
2019-05-21T00:05:45.573Z,86.61
2019-05-21T00:06:45.534Z,87.12
2019-05-21T00:07:45.548Z,87.22
2019-05-21T00:08:45.506Z,86.61
2019-05-21T00:09:45.494Z,87.32
2019-05-21T00:10:45.480Z,86.41
2019-05-21T00:11:45.470Z,86.21
2019-05-21T00:12:45.494Z,87.32
2019-05-21T00:13:45.480Z,86.41
2019-05-21T00:14:45.432Z,86.10
2019-05-21T00:15:45.421Z,85.70
2019-05-21T00:16:45.412Z,85.70
2019-05-21T00:17:45.405Z,86.00
2019-05-21T00:18:45.413Z,86.00
2019-05-21T00:19:45.382Z,86.31
2019-05-21T00:20:45.372Z,85.90
2019-05-21T00:21:45.365Z,85.90
2019-05-21T00:22:45.339Z,86.25
2019-05-21T00:23:45.364Z,86.25
2019-05-21T00:24:45.323Z,86.51
2019-05-21T00:25:45.318Z,86.10
2019-05-21T00:26:45.298Z,86.45
2019-05-21T00:27:45.331Z,86.21
2019-05-21T00:28:45.301Z,86.05
2019-05-21T00:29:45.263Z,86.10
2019-05-21T00:30:45.263Z,86.00
2019-05-21T00:31:45.247Z,86.31
2019-05-21T00:32:45.226Z,86.15
2019-05-21T00:33:45.244Z,86.51
2019-05-21T00:34:45.204Z,86.05
2019-05-21T00:35:45.199Z,86.35
2019-05-21T00:36:45.184Z,85.84
2019-05-21T00:37:45.177Z,86.05
2019-05-21T00:38:45.202Z,86.61
2019-05-21T00:39:45.148Z,86.35
2019-05-21T00:40:45.149Z,86.05
2019-05-21T00:41:45.142Z,85.94
2019-05-21T00:42:45.120Z,85.94
2019-05-21T00:43:45.146Z,86.76
2019-05-21T00:44:45.098Z,86.96
2019-05-21T00:45:45.082Z,86.65
2019-05-21T00:46:45.067Z,86.65
2019-05-21T00:47:45.055Z,86.96
2019-05-21T00:48:45.160Z,86.76
2019-05-21T00:49:45.036Z,86.86
2019-05-21T00:50:45.050Z,86.76
2019-05-21T00:51:45.019Z,86.76
2019-05-21T00:52:45.007Z,86.86
2019-05-21T00:53:45.019Z,87.06
2019-05-21T00:54:45.003Z,86.86
2019-05-21T00:55:44.969Z,87.37
2019-05-21T00:56:44.960Z,87.57
2019-05-21T00:57:44.942Z,87.77
2019-05-21T00:58:44.940Z,87.57
2019-05-21T00:59:44.960Z,87.77
2019-05-21T01:00:44.939Z,87.57
2019-05-21T01:01:44.895Z,87.92
2019-05-21T01:02:44.994Z,88.38
2019-05-21T01:03:44.869Z,88.42
2019-05-21T01:04:59.730Z,88.58
2019-05-21T01:05:45.851Z,88.99
2019-05-21T01:06:44.932Z,88.99
2019-05-21T01:07:44.831Z,88.93
2019-05-21T01:08:44.851Z,88.48
2019-05-21T01:09:44.833Z,88.82
2019-05-21T01:10:44.837Z,89.43
2019-05-21T01:11:44.792Z,88.89
2019-05-21T01:12:44.774Z,89.13
2019-05-21T01:13:44.760Z,89.50
2019-05-21T01:14:44.851Z,88.82
2019-05-21T01:15:44.740Z,88.93
2019-05-21T01:16:44.759Z,89.43
2019-05-21T01:17:44.714Z,89.09
2019-05-21T01:18:44.703Z,88.99
2019-05-21T01:19:44.716Z,89.19
2019-05-21T01:20:44.682Z,89.39
2019-05-21T01:21:44.668Z,89.19
2019-05-21T01:22:44.661Z,88.89
2019-05-21T01:23:44.648Z,89.29
2019-05-21T01:24:44.662Z,88.99
2019-05-21T01:25:44.623Z,88.89
2019-05-21T01:26:44.615Z,88.89
2019-05-21T01:27:44.606Z,89.43
2019-05-21T01:28:44.593Z,88.68
2019-05-21T01:29:44.611Z,89.03
2019-05-21T01:30:44.567Z,89.09
2019-05-21T01:31:44.557Z,89.29
2019-05-21T01:32:44.555Z,89.09
2019-05-21T01:33:44.593Z,89.23
2019-05-21T01:34:44.528Z,89.09
2019-05-21T01:35:44.544Z,89.09
2019-05-21T01:36:44.504Z,89.19
2019-05-21T01:37:44.500Z,88.18
2019-05-21T01:38:44.498Z,88.73
2019-05-21T01:39:44.470Z,88.58
2019-05-21T01:40:44.484Z,89.13
2019-05-21T01:41:44.446Z,89.19
2019-05-21T01:42:44.434Z,88.99
2019-05-21T01:43:44.424Z,88.89
2019-05-21T01:44:44.416Z,88.82
2019-05-21T01:45:44.434Z,89.09
2019-05-21T01:46:44.394Z,89.29
2019-05-21T01:47:44.379Z,88.68
2019-05-21T01:48:44.365Z,88.28
2019-05-21T01:49:44.373Z,88.58
2019-05-21T01:50:44.390Z,88.38
2019-05-21T01:51:44.338Z,88.28
2019-05-21T01:52:44.323Z,88.38
2019-05-21T01:53:44.321Z,88.38
2019-05-21T01:54:44.317Z,88.38
2019-05-21T01:55:44.318Z,88.68
2019-05-21T01:56:44.274Z,87.97
2019-05-21T01:57:44.268Z,88.18
2019-05-21T01:58:44.257Z,88.58
2019-05-21T01:59:44.245Z,88.38
2019-05-21T02:00:44.287Z,88.62
2019-05-21T02:01:44.270Z,88.58
2019-05-21T02:02:44.226Z,89.29
2019-05-21T02:03:44.207Z,89.29
2019-05-21T02:04:44.193Z,89.09
2019-05-21T02:05:44.219Z,88.89
2019-05-21T02:06:44.188Z,89.19
2019-05-21T02:07:44.156Z,88.38
2019-05-21T02:08:44.148Z,89.19
2019-05-21T02:09:44.128Z,88.99
2019-05-21T02:10:44.199Z,89.09
2019-05-21T02:11:44.122Z,89.33
2019-05-21T02:12:44.117Z,88.42
2019-05-21T02:13:44.098Z,88.73
2019-05-21T02:14:44.077Z,88.68
2019-05-21T02:15:44.065Z,89.13
2019-05-21T02:16:44.081Z,89.09
2019-05-21T02:17:44.059Z,89.09
2019-05-21T02:18:44.060Z,88.93
2019-05-21T02:19:44.036Z,89.13
2019-05-21T02:20:44.016Z,89.29
2019-05-21T02:21:44.031Z,89.09
2019-05-21T02:22:44.020Z,89.13
2019-05-21T02:23:44.005Z,89.13
2019-05-21T02:24:43.995Z,89.19
2019-05-21T02:25:43.960Z,89.13
2019-05-21T02:26:43.969Z,89.13
2019-05-21T02:27:43.980Z,89.03
2019-05-21T02:28:43.930Z,88.42
2019-05-21T02:29:43.926Z,88.93
2019-05-21T02:30:43.901Z,89.13
2019-05-21T02:31:43.924Z,88.52
2019-05-21T02:32:43.880Z,88.21
2019-05-21T02:33:43.877Z,88.38
2019-05-21T02:34:43.858Z,88.42
2019-05-21T02:35:53.814Z,88.58
2019-05-21T02:36:44.864Z,88.48
2019-05-21T02:37:43.825Z,88.48
2019-05-21T02:38:43.814Z,88.42
2019-05-21T02:39:43.809Z,88.38
2019-05-21T02:40:43.790Z,88.42
2019-05-21T02:41:43.823Z,88.38
2019-05-21T02:42:43.772Z,88.42
2019-05-21T02:43:43.771Z,88.32
2019-05-21T02:44:43.754Z,88.32
2019-05-21T02:45:43.748Z,88.42
2019-05-21T02:46:43.766Z,88.32
2019-05-21T02:47:43.728Z,88.52
2019-05-21T02:48:43.697Z,88.42
2019-05-21T02:49:43.690Z,88.32
2019-05-21T02:50:43.674Z,88.32
2019-05-21T02:51:43.714Z,87.92
2019-05-21T02:52:43.663Z,88.12
2019-05-21T02:53:43.641Z,88.21
2019-05-21T02:54:43.639Z,88.01
2019-05-21T02:55:43.622Z,87.67
2019-05-21T02:56:43.616Z,88.01
2019-05-21T02:57:43.623Z,87.92
2019-05-21T02:58:43.587Z,88.01
2019-05-21T02:59:43.574Z,87.77
2019-05-21T03:00:43.570Z,87.92
2019-05-21T03:01:43.553Z,88.12
2019-05-21T03:02:43.696Z,87.51
2019-05-21T03:03:43.540Z,87.61
2019-05-21T03:04:43.658Z,87.61
2019-05-21T03:05:43.512Z,87.92
2019-05-21T03:06:43.512Z,88.01
2019-05-21T03:07:43.486Z,87.61
2019-05-21T03:08:43.503Z,87.92
2019-05-21T03:09:43.472Z,87.92
2019-05-21T03:10:43.457Z,88.07
2019-05-21T03:11:43.445Z,87.61
2019-05-21T03:12:43.431Z,87.61
2019-05-21T03:13:43.450Z,88.21
2019-05-21T03:14:43.427Z,88.01
2019-05-21T03:15:43.403Z,88.21
2019-05-21T03:16:43.382Z,88.36
2019-05-21T03:17:43.376Z,88.21
2019-05-21T03:18:43.392Z,87.92
2019-05-21T03:19:43.351Z,88.32
2019-05-21T03:20:43.342Z,88.32
2019-05-21T03:21:43.329Z,89.33
2019-05-21T03:22:43.351Z,89.28
2019-05-21T03:23:43.332Z,89.23
2019-05-21T03:24:43.298Z,89.23
2019-05-21T03:25:43.290Z,89.33
2019-05-21T03:26:43.277Z,89.33
2019-05-21T03:27:43.264Z,89.13
2019-05-21T03:28:43.282Z,89.03
2019-05-21T03:29:43.238Z,89.23
2019-05-21T03:30:43.239Z,89.37
2019-05-21T03:31:43.229Z,89.28
2019-05-21T03:32:43.212Z,89.48
2019-05-21T03:33:43.221Z,89.94
2019-05-21T03:34:43.183Z,90.14
2019-05-21T03:35:43.176Z,90.35
2019-05-21T03:36:43.164Z,90.05
2019-05-21T03:37:43.160Z,90.05
2019-05-21T03:38:43.180Z,89.98
2019-05-21T03:39:43.125Z,90.39
2019-05-21T03:40:43.116Z,90.19
2019-05-21T03:41:43.107Z,90.29
2019-05-21T03:42:43.094Z,90.19
2019-05-21T03:43:43.088Z,90.39
2019-05-21T03:44:58.318Z,91.20
2019-05-21T03:45:44.060Z,90.45
2019-05-21T03:46:43.047Z,90.39
2019-05-21T03:47:43.036Z,90.96
2019-05-21T03:48:43.032Z,90.45
2019-05-21T03:49:43.072Z,91.41
2019-05-21T03:50:43.011Z,91.00
2019-05-21T03:51:43.015Z,90.49
2019-05-21T03:52:42.990Z,90.55
2019-05-21T03:53:42.998Z,91.00
2019-05-21T03:54:42.987Z,90.86
2019-05-21T03:55:42.965Z,90.29
2019-05-21T03:56:42.938Z,90.49
2019-05-21T03:57:42.930Z,90.80
2019-05-21T03:58:42.948Z,90.90
2019-05-21T03:59:42.930Z,91.00
2019-05-21T04:00:42.921Z,91.20
2019-05-21T04:01:42.885Z,90.96
2019-05-21T04:02:42.874Z,91.10
2019-05-21T04:03:42.862Z,91.20
2019-05-21T04:04:42.874Z,91.10
2019-05-21T04:05:42.834Z,90.90
2019-05-21T04:06:51.930Z,91.00
2019-05-21T04:07:43.812Z,91.20
2019-05-21T04:08:42.803Z,91.14
2019-05-21T04:09:43.022Z,90.80
2019-05-21T04:10:42.779Z,90.70
2019-05-21T04:11:42.895Z,91.10
2019-05-21T04:12:42.761Z,90.80
2019-05-21T04:13:42.858Z,91.20
2019-05-21T04:14:42.772Z,91.20
2019-05-21T04:15:42.726Z,90.80
2019-05-21T04:16:42.721Z,91.10
2019-05-21T04:17:42.766Z,90.80
2019-05-21T04:18:42.695Z,91.30
2019-05-21T04:19:42.689Z,90.90
2019-05-21T04:20:42.701Z,90.90
2019-05-21T04:21:42.743Z,91.10
2019-05-21T04:22:42.647Z,90.90
2019-05-21T04:23:42.683Z,90.80
2019-05-21T04:24:42.627Z,91.20
2019-05-21T04:25:42.675Z,91.26
2019-05-21T04:26:42.606Z,90.70
2019-05-21T04:27:42.664Z,91.06
2019-05-21T04:28:42.584Z,91.10
2019-05-21T04:29:42.571Z,90.80
2019-05-21T04:30:42.586Z,90.39
2019-05-21T04:31:42.555Z,90.49
2019-05-21T04:32:42.540Z,90.49
2019-05-21T04:33:42.528Z,90.49
2019-05-21T04:34:42.513Z,90.59
2019-05-21T04:35:42.528Z,90.90
2019-05-21T04:36:42.498Z,90.70
2019-05-21T04:37:42.492Z,90.90
2019-05-21T04:38:42.474Z,90.19
2019-05-21T04:39:42.501Z,90.19
2019-05-21T04:40:42.494Z,90.80
2019-05-21T04:41:42.442Z,90.96
2019-05-21T04:42:42.430Z,91.10
2019-05-21T04:43:42.425Z,90.39
2019-05-21T04:44:42.405Z,90.49
2019-05-21T04:45:42.418Z,91.00
2019-05-21T04:46:42.384Z,91.00
2019-05-21T04:47:42.374Z,90.90
2019-05-21T04:48:42.365Z,90.19
2019-05-21T04:49:42.353Z,89.88
2019-05-21T04:50:42.375Z,90.19
2019-05-21T04:51:42.333Z,90.19
2019-05-21T04:52:42.320Z,90.29
2019-05-21T04:53:42.323Z,91.00
2019-05-21T04:54:42.294Z,90.59
2019-05-21T04:55:42.320Z,90.80
2019-05-21T04:56:42.279Z,90.19
2019-05-21T04:57:42.259Z,90.09
2019-05-21T04:58:42.254Z,90.19
2019-05-21T04:59:42.238Z,90.19
2019-05-21T05:00:42.257Z,90.70
2019-05-21T05:01:42.245Z,90.29
2019-05-21T05:02:42.205Z,90.39
2019-05-21T05:03:42.202Z,91.10
2019-05-21T05:04:42.199Z,90.80
2019-05-21T05:05:42.198Z,91.00
2019-05-21T05:06:42.185Z,90.35
2019-05-21T05:07:42.151Z,90.25
2019-05-21T05:08:42.142Z,90.59
2019-05-21T05:09:42.130Z,90.35
2019-05-21T05:10:42.116Z,91.10
2019-05-21T05:11:42.142Z,90.35
2019-05-21T05:12:42.094Z,90.70
2019-05-21T05:13:42.093Z,89.88
2019-05-21T05:14:42.072Z,90.09
2019-05-21T05:15:42.086Z,89.74
2019-05-21T05:16:42.114Z,90.09
2019-05-21T05:17:42.051Z,89.88
2019-05-21T05:18:42.032Z,89.68
2019-05-21T05:19:42.031Z,89.88
2019-05-21T05:20:42.077Z,90.19
2019-05-21T05:21:42.024Z,90.19
2019-05-21T05:22:42.023Z,90.39
2019-05-21T05:23:41.973Z,90.19
2019-05-21T05:24:41.962Z,89.88
2019-05-21T05:25:41.953Z,90.09
2019-05-21T05:26:42.033Z,89.98
2019-05-21T05:27:41.963Z,90.33
2019-05-21T05:28:41.945Z,90.33
2019-05-21T05:29:41.919Z,90.13
2019-05-21T05:30:41.946Z,89.92
2019-05-21T05:31:41.890Z,89.83
2019-05-21T05:32:41.947Z,90.23
2019-05-21T05:33:41.867Z,90.13
2019-05-21T05:34:41.859Z,89.72
2019-05-21T05:35:41.848Z,89.52
2019-05-21T05:36:41.856Z,89.62
2019-05-21T05:37:45.186Z,89.83
2019-05-21T05:38:41.839Z,89.62
2019-05-21T05:39:41.799Z,89.72
2019-05-21T05:40:41.791Z,90.23
2019-05-21T05:41:41.774Z,89.83
2019-05-21T05:42:41.800Z,89.83
2019-05-21T05:43:41.755Z,89.83
2019-05-21T05:44:41.749Z,89.42
2019-05-21T05:45:41.741Z,89.72
2019-05-21T05:46:41.728Z,89.72
2019-05-21T05:47:41.749Z,89.52
2019-05-21T05:48:41.742Z,89.48
2019-05-21T05:49:41.704Z,89.37
2019-05-21T05:50:41.695Z,89.42
2019-05-21T05:51:41.671Z,89.17
2019-05-21T05:52:41.682Z,89.52
2019-05-21T05:53:41.645Z,89.62
2019-05-21T05:54:41.637Z,89.42
2019-05-21T05:55:41.621Z,89.52
2019-05-21T05:56:41.605Z,89.58
2019-05-21T05:57:41.619Z,89.52
2019-05-21T05:58:41.608Z,89.28
2019-05-21T05:59:41.587Z,89.31
2019-05-21T06:00:41.571Z,88.87
2019-05-21T06:01:41.569Z,89.37
2019-05-21T06:02:41.597Z,89.17
2019-05-21T06:03:41.548Z,88.67
2019-05-21T06:04:41.525Z,88.97
2019-05-21T06:05:41.516Z,89.17
2019-05-21T06:06:41.499Z,88.36
2019-05-21T06:07:41.521Z,88.36
2019-05-21T06:08:41.522Z,88.46
2019-05-21T06:09:41.468Z,88.46
2019-05-21T06:10:41.458Z,88.60
2019-05-21T06:11:41.451Z,87.99
2019-05-21T06:12:41.471Z,87.99
2019-05-21T06:13:41.455Z,87.75
2019-05-21T06:14:41.411Z,88.40
2019-05-21T06:15:41.402Z,88.40
2019-05-21T06:16:41.393Z,87.95
2019-05-21T06:17:41.379Z,87.95
2019-05-21T06:18:41.402Z,87.89
2019-05-21T06:19:41.376Z,87.95
2019-05-21T06:20:41.357Z,88.10
2019-05-21T06:21:41.331Z,88.30
2019-05-21T06:22:41.318Z,87.95
2019-05-21T06:23:41.340Z,88.06
2019-05-21T06:24:41.305Z,87.65
2019-05-21T06:25:41.291Z,87.79
2019-05-21T06:26:41.272Z,87.79
2019-05-21T06:27:41.275Z,87.08
2019-05-21T06:28:41.277Z,87.04
2019-05-21T06:29:41.250Z,86.98
2019-05-21T06:30:41.235Z,87.08
2019-05-21T06:31:41.224Z,87.24
2019-05-21T06:32:41.210Z,87.45
2019-05-21T06:33:41.240Z,87.04
2019-05-21T06:34:41.221Z,86.83
2019-05-21T06:35:41.179Z,86.74
2019-05-21T06:36:41.161Z,86.63
2019-05-21T06:37:41.161Z,87.45
2019-05-21T06:38:41.149Z,86.53
2019-05-21T06:39:41.168Z,86.43
2019-05-21T06:40:41.121Z,86.43
2019-05-21T06:41:41.114Z,87.45
2019-05-21T06:42:41.103Z,87.14
2019-05-21T06:43:41.089Z,86.08
2019-05-21T06:44:41.108Z,86.43
2019-05-21T06:45:41.080Z,86.63
2019-05-21T06:46:41.056Z,86.59
2019-05-21T06:47:41.043Z,86.19
2019-05-21T06:48:41.028Z,86.29
2019-05-21T06:49:41.046Z,85.78
2019-05-21T06:50:41.010Z,86.39
2019-05-21T06:51:41.011Z,86.08
2019-05-21T06:52:41.001Z,86.19
2019-05-21T06:53:40.974Z,86.49
2019-05-21T06:54:40.992Z,86.29
2019-05-21T06:55:40.985Z,86.19
2019-05-21T06:56:40.945Z,86.39
2019-05-21T06:57:40.927Z,86.19
2019-05-21T06:58:40.919Z,86.29
2019-05-21T06:59:40.933Z,86.59
2019-05-21T07:00:40.903Z,86.19
2019-05-21T07:01:40.888Z,86.29
2019-05-21T07:02:40.878Z,85.98
2019-05-21T07:03:40.873Z,86.19
2019-05-21T07:04:40.896Z,86.08
2019-05-21T07:05:56.094Z,86.39
2019-05-21T07:06:44.677Z,87.20
2019-05-21T07:07:40.847Z,85.68
2019-05-21T07:08:40.817Z,86.29
2019-05-21T07:09:40.802Z,86.08
2019-05-21T07:10:40.832Z,85.98
2019-05-21T07:11:40.771Z,85.47
2019-05-21T07:12:40.761Z,86.29
2019-05-21T07:13:40.755Z,86.08
2019-05-21T07:14:40.750Z,86.19
2019-05-21T07:15:40.786Z,86.08
2019-05-21T07:16:40.728Z,86.02
2019-05-21T07:17:40.707Z,86.29
2019-05-21T07:18:41.515Z,86.08
2019-05-21T07:19:40.680Z,86.33
2019-05-21T07:20:40.712Z,86.19
2019-05-21T07:21:40.688Z,86.53
2019-05-21T07:22:40.760Z,85.52
2019-05-21T07:23:40.637Z,86.43
2019-05-21T07:24:40.759Z,86.08
2019-05-21T07:25:40.617Z,85.98
2019-05-21T07:26:40.797Z,86.49
2019-05-21T07:27:40.598Z,86.59
2019-05-21T07:28:40.669Z,85.98
2019-05-21T07:29:40.574Z,85.72
2019-05-21T07:30:40.586Z,86.08
2019-05-21T07:31:40.572Z,85.47
2019-05-21T07:32:40.549Z,85.38
2019-05-21T07:33:40.528Z,85.68
2019-05-21T07:34:40.522Z,86.08
2019-05-21T07:35:40.565Z,85.92
2019-05-21T07:36:40.495Z,86.53
2019-05-21T07:37:40.481Z,86.33
2019-05-21T07:38:52.620Z,86.22
2019-05-21T07:39:41.458Z,86.39
2019-05-21T07:40:40.485Z,86.53
2019-05-21T07:41:40.468Z,85.92
2019-05-21T07:42:40.433Z,86.13
2019-05-21T07:43:40.664Z,85.62
2019-05-21T07:44:40.409Z,85.98
2019-05-21T07:45:40.397Z,85.88
2019-05-21T07:46:40.409Z,86.19
2019-05-21T07:47:40.374Z,86.29
2019-05-21T07:48:40.369Z,86.08
2019-05-21T07:49:40.356Z,87.10
2019-05-21T07:50:40.341Z,86.59
2019-05-21T07:51:40.367Z,86.59
2019-05-21T07:52:40.342Z,86.08
2019-05-21T07:53:40.311Z,86.59
2019-05-21T07:54:40.301Z,86.39
2019-05-21T07:55:40.302Z,86.49
2019-05-21T07:56:40.304Z,87.40
2019-05-21T07:57:40.280Z,86.69
2019-05-21T07:58:40.260Z,87.30
2019-05-21T07:59:40.237Z,86.49
2019-05-21T08:00:40.224Z,86.19
2019-05-21T08:01:40.248Z,85.88
2019-05-21T08:02:40.216Z,86.39
2019-05-21T08:03:40.196Z,86.22
2019-05-21T08:04:40.194Z,86.22
2019-05-21T08:05:40.201Z,87.04
2019-05-21T08:06:40.188Z,86.90
2019-05-21T08:07:40.147Z,87.24
2019-05-21T08:08:40.140Z,87.81
2019-05-21T08:09:40.126Z,87.00
2019-05-21T08:10:40.116Z,85.53
2019-05-21T08:11:40.131Z,86.05
2019-05-21T08:12:40.203Z,86.10
2019-05-21T08:13:40.084Z,85.30
2019-05-21T08:14:40.075Z,84.55
2019-05-21T08:15:40.067Z,84.55
2019-05-21T08:16:40.046Z,83.83
2019-05-21T08:17:40.084Z,83.12
2019-05-21T08:18:40.028Z,83.59
2019-05-21T08:19:40.014Z,83.59
2019-05-21T08:20:40.012Z,83.04
2019-05-21T08:21:39.988Z,82.89
2019-05-21T08:22:40.007Z,82.44
2019-05-21T08:23:40.032Z,82.64
2019-05-21T08:24:39.958Z,82.84
2019-05-21T08:25:40.001Z,83.18
2019-05-21T08:26:39.933Z,83.39
2019-05-21T08:27:40.095Z,83.59
2019-05-21T08:28:39.911Z,83.29
2019-05-21T08:29:39.922Z,83.59
2019-05-21T08:30:39.887Z,83.49
2019-05-21T08:31:39.874Z,82.75
2019-05-21T08:32:39.892Z,83.49
2019-05-21T08:33:40.015Z,82.38
2019-05-21T08:34:39.844Z,82.54
2019-05-21T08:35:39.830Z,82.58
2019-05-21T08:36:39.819Z,82.98
2019-05-21T08:37:39.935Z,82.28
2019-05-21T08:38:39.796Z,82.78
2019-05-21T08:39:39.786Z,81.93
2019-05-21T08:40:39.771Z,82.03
2019-05-21T08:41:39.761Z,82.14
2019-05-21T08:42:39.796Z,82.28
2019-05-21T08:43:39.775Z,82.68
2019-05-21T08:44:39.731Z,82.58
2019-05-21T08:45:39.720Z,83.09
2019-05-21T08:46:39.705Z,83.18
2019-05-21T08:47:39.701Z,82.84
2019-05-21T08:48:39.727Z,82.89
2019-05-21T08:49:39.677Z,82.98
2019-05-21T08:50:39.711Z,83.15
2019-05-21T08:51:39.689Z,82.64
2019-05-21T08:52:39.712Z,82.03
2019-05-21T08:53:39.648Z,82.34
2019-05-21T08:54:39.616Z,82.34
2019-05-21T08:55:39.603Z,81.79
2019-05-21T08:56:39.683Z,81.18
2019-05-21T08:57:39.587Z,80.78
2019-05-21T08:58:39.615Z,81.18
2019-05-21T08:59:39.558Z,82.10
2019-05-21T09:00:39.619Z,80.98
2019-05-21T09:01:39.538Z,81.99
2019-05-21T09:02:39.541Z,81.83
2019-05-21T09:03:39.536Z,82.44
2019-05-21T09:04:46.430Z,82.75
2019-05-21T09:05:40.482Z,82.50
2019-05-21T09:06:39.481Z,82.44
2019-05-21T09:07:39.470Z,81.90
2019-05-21T09:08:39.481Z,83.01
2019-05-21T09:09:50.052Z,82.54
2019-05-21T09:10:40.436Z,82.81
2019-05-21T09:11:39.416Z,82.44
2019-05-21T09:12:39.404Z,82.44
2019-05-21T09:13:39.419Z,83.04
2019-05-21T09:14:39.401Z,83.96
2019-05-21T09:15:39.382Z,83.31
2019-05-21T09:16:39.369Z,82.64
2019-05-21T09:17:39.354Z,83.15
2019-05-21T09:18:39.370Z,81.73
2019-05-21T09:19:39.335Z,82.54
2019-05-21T09:20:39.329Z,82.64
2019-05-21T09:21:39.317Z,82.75
2019-05-21T09:22:39.293Z,82.24
2019-05-21T09:23:39.296Z,82.84
2019-05-21T09:24:39.301Z,82.75
2019-05-21T09:25:39.359Z,82.75
2019-05-21T09:26:39.248Z,83.15
2019-05-21T09:27:39.241Z,81.79
2019-05-21T09:28:39.229Z,82.64
2019-05-21T09:29:39.259Z,82.34
2019-05-21T09:30:39.203Z,82.64
2019-05-21T09:31:39.196Z,81.69
2019-05-21T09:32:39.181Z,82.03
2019-05-21T09:33:39.176Z,81.63
2019-05-21T09:34:48.897Z,82.50
2019-05-21T09:35:40.172Z,82.54
2019-05-21T09:36:39.140Z,81.93
2019-05-21T09:37:39.132Z,82.14
2019-05-21T09:38:39.121Z,82.24
2019-05-21T09:39:39.153Z,82.64
2019-05-21T09:40:39.118Z,82.14
2019-05-21T09:41:39.084Z,82.14
2019-05-21T09:42:39.237Z,82.75
2019-05-21T09:43:39.061Z,82.30
2019-05-21T09:44:39.072Z,81.79
2019-05-21T09:45:39.130Z,81.29
2019-05-21T09:46:39.068Z,81.59
2019-05-21T09:47:39.014Z,82.24
2019-05-21T09:48:39.005Z,82.34
2019-05-21T09:49:39.033Z,82.14
2019-05-21T09:50:39.082Z,82.34
2019-05-21T09:51:38.990Z,82.24
2019-05-21T09:52:38.964Z,82.54
2019-05-21T09:53:38.941Z,82.14
2019-05-21T09:54:38.943Z,82.58
2019-05-21T09:55:38.944Z,83.59
2019-05-21T09:56:38.909Z,83.04
2019-05-21T09:57:38.894Z,83.18
2019-05-21T09:58:38.883Z,82.58
2019-05-21T09:59:38.873Z,82.84
2019-05-21T10:00:38.931Z,82.58
2019-05-21T10:01:38.865Z,83.49
2019-05-21T10:02:38.844Z,82.84
2019-05-21T10:03:38.858Z,82.84
2019-05-21T10:04:38.834Z,82.89
2019-05-21T10:05:38.844Z,83.45
2019-05-21T10:06:38.796Z,83.35
2019-05-21T10:07:40.547Z,82.44
2019-05-21T10:08:38.779Z,82.64
2019-05-21T10:09:38.771Z,83.59
2019-05-21T10:10:38.808Z,83.09
2019-05-21T10:11:38.746Z,83.04
2019-05-21T10:12:38.740Z,83.45
2019-05-21T10:13:38.723Z,82.84
2019-05-21T10:14:38.708Z,82.44
2019-05-21T10:15:38.861Z,82.58
2019-05-21T10:16:38.688Z,83.59
2019-05-21T10:17:38.682Z,83.80
2019-05-21T10:18:38.658Z,84.20
2019-05-21T10:19:38.648Z,84.69
2019-05-21T10:20:38.667Z,84.58
2019-05-21T10:21:38.628Z,85.30
2019-05-21T10:22:38.607Z,85.60
2019-05-21T10:23:38.607Z,85.50
2019-05-21T10:24:38.600Z,85.60
2019-05-21T10:25:38.612Z,85.60
2019-05-21T10:26:38.586Z,86.21
2019-05-21T10:27:38.555Z,86.00
2019-05-21T10:28:38.563Z,86.05
2019-05-21T10:29:38.534Z,85.80
2019-05-21T10:30:38.516Z,86.25
2019-05-21T10:31:38.559Z,87.06
2019-05-21T10:32:38.500Z,87.26
2019-05-21T10:33:38.482Z,87.06
2019-05-21T10:34:38.471Z,86.96
2019-05-21T10:35:38.464Z,86.71
2019-05-21T10:36:38.476Z,87.26
2019-05-21T10:37:52.604Z,87.57
2019-05-21T10:38:39.426Z,87.57
2019-05-21T10:39:38.433Z,87.46
2019-05-21T10:40:38.411Z,87.67
2019-05-21T10:41:38.429Z,87.46
2019-05-21T10:42:38.407Z,88.48
2019-05-21T10:43:38.369Z,88.07
2019-05-21T10:44:38.356Z,87.57
2019-05-21T10:45:38.363Z,87.77
2019-05-21T10:46:38.363Z,88.03
2019-05-21T10:47:38.351Z,87.57
2019-05-21T10:48:38.311Z,87.87
2019-05-21T10:49:38.300Z,87.87
2019-05-21T10:50:38.302Z,87.87
2019-05-21T10:51:38.280Z,87.77
2019-05-21T10:52:38.301Z,88.07
2019-05-21T10:53:38.319Z,87.77
2019-05-21T10:54:38.275Z,87.77
2019-05-21T10:55:38.232Z,87.97
2019-05-21T10:56:47.231Z,87.67
2019-05-21T10:57:39.258Z,87.87
2019-05-21T10:58:38.212Z,87.87
2019-05-21T10:59:38.195Z,87.26
2019-05-21T11:00:38.173Z,87.87
2019-05-21T11:01:38.167Z,87.87
2019-05-21T11:02:38.179Z,87.67
2019-05-21T11:03:38.149Z,87.77
2019-05-21T11:04:38.133Z,87.67
2019-05-21T11:05:38.118Z,87.52
2019-05-21T11:06:38.143Z,88.18
2019-05-21T11:07:38.129Z,87.83
2019-05-21T11:08:38.107Z,87.87
2019-05-21T11:09:38.073Z,87.67
2019-05-21T11:10:38.085Z,87.16
2019-05-21T11:11:38.060Z,87.16
2019-05-21T11:12:38.068Z,87.12
2019-05-21T11:13:38.054Z,87.26
2019-05-21T11:14:38.016Z,87.12
2019-05-21T11:15:38.008Z,86.31
2019-05-21T11:16:38.018Z,86.00
2019-05-21T11:17:50.048Z,86.51
2019-05-21T11:18:38.970Z,86.61
2019-05-21T11:19:37.968Z,86.82
2019-05-21T11:20:37.958Z,87.22
2019-05-21T11:21:37.944Z,86.10
2019-05-21T11:22:37.973Z,86.10
2019-05-21T11:23:37.918Z,86.10
2019-05-21T11:24:37.903Z,86.07
2019-05-21T11:25:37.890Z,85.86
2019-05-21T11:26:37.899Z,86.16
2019-05-21T11:27:37.899Z,86.37
2019-05-21T11:28:37.859Z,86.07
2019-05-21T11:29:37.855Z,86.07
2019-05-21T11:30:37.839Z,85.76
2019-05-21T11:31:37.836Z,86.27
2019-05-21T11:32:37.848Z,86.07
2019-05-21T11:33:37.807Z,86.27
2019-05-21T11:34:37.807Z,86.16
2019-05-21T11:35:37.787Z,85.96
2019-05-21T11:36:37.772Z,85.86
2019-05-21T11:37:37.778Z,85.96
2019-05-21T11:38:40.230Z,85.66
2019-05-21T11:39:37.732Z,85.56
2019-05-21T11:40:37.831Z,85.56
2019-05-21T11:41:37.707Z,85.76
2019-05-21T11:42:37.915Z,85.56
2019-05-21T11:43:37.686Z,85.86
2019-05-21T11:44:37.758Z,86.37
2019-05-21T11:45:37.678Z,86.07
2019-05-21T11:46:37.761Z,86.13
2019-05-21T11:47:37.645Z,86.02
2019-05-21T11:48:37.689Z,85.21
2019-05-21T11:49:37.631Z,85.31
2019-05-21T11:50:37.604Z,85.01
2019-05-21T11:51:37.601Z,85.11
2019-05-21T11:52:37.584Z,85.56
2019-05-21T11:53:37.606Z,84.70
2019-05-21T11:54:37.558Z,85.42
2019-05-21T11:55:37.553Z,85.42
2019-05-21T11:56:37.557Z,84.50
2019-05-21T11:57:37.530Z,84.61
2019-05-21T11:58:39.694Z,84.81
2019-05-21T11:59:37.506Z,84.47
2019-05-21T12:00:37.511Z,84.61
2019-05-21T12:01:37.489Z,84.81
2019-05-21T12:02:37.475Z,84.30
2019-05-21T12:03:37.492Z,83.69
2019-05-21T12:04:37.445Z,83.59
2019-05-21T12:05:37.442Z,83.49
2019-05-21T12:06:37.426Z,84.41
2019-05-21T12:07:37.412Z,84.30
2019-05-21T12:08:37.425Z,84.81
2019-05-21T12:09:37.388Z,84.00
2019-05-21T12:10:37.378Z,83.80
2019-05-21T12:11:37.370Z,83.65
2019-05-21T12:12:37.364Z,83.29
2019-05-21T12:13:37.380Z,83.80
2019-05-21T12:14:37.349Z,83.55
2019-05-21T12:15:37.329Z,83.76
2019-05-21T12:16:37.310Z,83.96
2019-05-21T12:17:37.303Z,83.45
2019-05-21T12:18:37.281Z,83.15
2019-05-21T12:19:37.302Z,82.54
2019-05-21T12:20:37.678Z,82.54
2019-05-21T12:21:37.247Z,82.75
2019-05-21T12:22:37.241Z,82.64
2019-05-21T12:23:37.230Z,82.44
2019-05-21T12:24:37.259Z,82.78
2019-05-21T12:25:37.216Z,83.15
2019-05-21T12:26:37.200Z,82.84
2019-05-21T12:27:37.199Z,83.25
2019-05-21T12:28:37.177Z,83.15
2019-05-21T12:29:37.190Z,82.64
2019-05-21T12:30:37.153Z,82.54
2019-05-21T12:31:37.154Z,82.44
2019-05-21T12:32:37.138Z,82.64
2019-05-21T12:33:37.110Z,82.54
2019-05-21T12:34:39.022Z,82.75
2019-05-21T12:35:37.098Z,82.44
2019-05-21T12:36:37.114Z,82.34
2019-05-21T12:37:37.068Z,82.50
2019-05-21T12:38:37.051Z,82.60
2019-05-21T12:39:37.073Z,82.40
2019-05-21T12:40:37.038Z,82.10
2019-05-21T12:41:37.046Z,82.20
2019-05-21T12:42:37.015Z,82.50
2019-05-21T12:43:37.007Z,81.99
2019-05-21T12:44:37.011Z,82.14
2019-05-21T12:45:36.976Z,81.99
2019-05-21T12:46:36.962Z,82.20
2019-05-21T12:47:37.015Z,81.29
2019-05-21T12:48:36.948Z,80.78
2019-05-21T12:49:37.188Z,80.72
2019-05-21T12:50:36.917Z,81.02
2019-05-21T12:51:36.916Z,81.02
2019-05-21T12:52:36.898Z,81.49